PWSweather.com
Personal Weather Stations
Station Observations
KMAMEDFI2
Medfield, MA 02052

Medfield, MA 02052

Lat: 42.1900822, Lon: -71.3296889

Elevation: 138

Station Type: Rainwise WS MK-III

http://www.medfieldweather.com

Latest ConditionsUpdated 5:20:00 AM EDT Thursday, Oct 23, 2014
Currently Today's Max Today's Min Today's Average
Temperature 48.3°F9.1°C 50.4°F10.2°C 47.9°F8.8°C 49.1°F9.5°C
Dew Point 47.5°F8.6°C 49.6°F9.8°C 47.1°F8.4°C 48.3°F9.1°C
Winds 5.2 mph SE8.4 kmh SE 6.0 mph S9.7 kmh S - 3.7 mph 6.0 kmh
Wind Gusts 14.3 mph23.0 kmh 16.9 mph27.2 kmh - -
Humidity 97% 97% 97% 97%
Pressure 29.58 in1001.7 mb 29.75 in1007.5 mb 29.58 in1001.7 mb -
Precipitation - 1.10 in27.9 mm - -
Hour Temp Dew Point Humidity Winds Wind Gusts Pressure Precip Precip Rate Daily Precip Total
05:20 AM 48.3°F9.1°C 47.5°F8.6°C 97% 5.2 mph SE8.4 kmh SE 14.3 mph23.0 kmh 29.58 in1001.7 mb 0.00 in0.0 mm 0.00 in/hr0.0 mm/hr 1.10 in27.9 mm
05:10 AM 48.2°F9.0°C 47.4°F8.6°C 97% 5.6 mph W9.0 kmh W 16.9 mph27.2 kmh 29.61 in1002.7 mb 0.01 in0.3 mm 0.06 in/hr1.5 mm/hr 1.10 in27.9 mm
05:00 AM 48.0°F8.9°C 47.2°F8.4°C 97% 5.4 mph W8.7 kmh W 14.3 mph23.0 kmh 29.61 in1002.7 mb 0.03 in0.8 mm 0.04 in/hr1.0 mm/hr 1.09 in27.7 mm
04:50 AM 48.0°F8.9°C 47.2°F8.4°C 97% 3.8 mph NE6.1 kmh NE 9.1 mph14.6 kmh 29.62 in1003.0 mb 0.02 in0.5 mm 0.12 in/hr3.0 mm/hr 1.07 in27.2 mm
04:40 AM 47.9°F8.8°C 47.1°F8.4°C 97% 4.0 mph S6.4 kmh S 9.1 mph14.6 kmh 29.62 in1003.0 mb 0.05 in1.3 mm 0.30 in/hr7.6 mm/hr 1.05 in26.7 mm
04:30 AM 48.0°F8.9°C 47.2°F8.4°C 97% 4.0 mph ESE6.4 kmh ESE 10.4 mph16.7 kmh 29.64 in1003.7 mb 0.05 in1.3 mm 0.30 in/hr7.6 mm/hr 1.01 in25.7 mm
04:20 AM 48.2°F9.0°C 47.4°F8.6°C 97% 3.6 mph SE5.8 kmh SE 9.1 mph14.6 kmh 29.64 in1003.7 mb 0.06 in1.5 mm 0.36 in/hr9.1 mm/hr 0.97 in24.6 mm
04:10 AM 48.3°F9.1°C 47.5°F8.6°C 97% 3.3 mph SSW5.3 kmh SSW 7.8 mph12.6 kmh 29.65 in1004.1 mb 0.06 in1.5 mm 0.36 in/hr9.1 mm/hr 0.92 in23.4 mm
04:00 AM 48.5°F9.2°C 47.7°F8.7°C 97% 3.4 mph SE5.5 kmh SE 10.4 mph16.7 kmh 29.66 in1004.4 mb 0.02 in0.5 mm 0.02 in/hr0.5 mm/hr 0.87 in22.1 mm
03:50 AM 48.6°F9.2°C 47.8°F8.8°C 97% 2.6 mph NW4.2 kmh NW 5.2 mph8.4 kmh 29.66 in1004.4 mb 0.04 in1.0 mm 0.24 in/hr6.1 mm/hr 0.85 in21.6 mm
03:40 AM 48.6°F9.2°C 47.7°F8.7°C 97% 2.4 mph SE3.9 kmh SE 2.6 mph4.2 kmh 29.67 in1004.7 mb 0.04 in1.0 mm 0.24 in/hr6.1 mm/hr 0.82 in20.8 mm
03:30 AM 48.5°F9.2°C 47.7°F8.7°C 97% 4.3 mph N6.9 kmh N 6.5 mph10.5 kmh 29.67 in1004.7 mb 0.02 in0.5 mm 0.12 in/hr3.0 mm/hr 0.79 in20.1 mm
03:20 AM 48.6°F9.2°C 47.8°F8.8°C 97% 2.4 mph SSW3.9 kmh SSW 6.5 mph10.5 kmh 29.67 in1004.7 mb 0.01 in0.3 mm 0.06 in/hr1.5 mm/hr 0.76 in19.3 mm
03:10 AM 48.6°F9.2°C 47.8°F8.8°C 97% 3.6 mph NW5.8 kmh NW 7.8 mph12.6 kmh 29.67 in1004.7 mb 0.01 in0.3 mm 0.06 in/hr1.5 mm/hr 0.75 in19.1 mm
03:00 AM 48.6°F9.2°C 47.8°F8.8°C 97% 6.0 mph S9.7 kmh S 10.4 mph16.7 kmh 29.67 in1004.7 mb 0.01 in0.3 mm 0.01 in/hr0.3 mm/hr 0.74 in18.8 mm
02:50 AM 48.6°F9.2°C 47.8°F8.8°C 97% 3.1 mph NNW5.0 kmh NNW 7.8 mph12.6 kmh 29.68 in1005.1 mb 0.00 in0.0 mm 0.00 in/hr0.0 mm/hr 0.73 in18.5 mm
02:40 AM 48.7°F9.3°C 47.8°F8.8°C 97% 3.5 mph S5.6 kmh S 14.3 mph23.0 kmh 29.69 in1005.4 mb 0.00 in0.0 mm 0.00 in/hr0.0 mm/hr 0.73 in18.5 mm
02:30 AM 48.7°F9.3°C 47.9°F8.8°C 97% 3.7 mph E6.0 kmh E 13.0 mph20.9 kmh 29.67 in1004.7 mb 0.04 in1.0 mm 0.24 in/hr6.1 mm/hr 0.73 in18.5 mm
02:20 AM 48.9°F9.4°C 48.1°F8.9°C 97% 6.0 mph N9.7 kmh N 9.1 mph14.6 kmh 29.68 in1005.1 mb 0.05 in1.3 mm 0.30 in/hr7.6 mm/hr 0.70 in17.8 mm
02:10 AM 49.2°F9.6°C 48.4°F9.1°C 97% 4.1 mph NNW6.6 kmh NNW 7.8 mph12.6 kmh 29.71 in1006.1 mb 0.03 in0.8 mm 0.18 in/hr4.6 mm/hr 0.66 in16.8 mm
02:00 AM 49.4°F9.7°C 48.6°F9.2°C 97% 2.6 mph S4.2 kmh S 9.1 mph14.6 kmh 29.73 in1006.8 mb 0.02 in0.5 mm 0.02 in/hr0.5 mm/hr 0.63 in16.0 mm
01:50 AM 49.6°F9.8°C 48.8°F9.3°C 97% 2.9 mph E4.7 kmh E 5.2 mph8.4 kmh 29.74 in1007.1 mb 0.04 in1.0 mm 0.24 in/hr6.1 mm/hr 0.61 in15.5 mm
01:40 AM 49.8°F9.9°C 48.9°F9.4°C 97% 4.1 mph SSE6.6 kmh SSE 5.2 mph8.4 kmh 29.74 in1007.1 mb 0.07 in1.8 mm 0.42 in/hr10.7 mm/hr 0.58 in14.7 mm
01:30 AM 49.9°F9.9°C 49.1°F9.5°C 97% 3.0 mph WSW4.8 kmh WSW 9.1 mph14.6 kmh 29.75 in1007.5 mb 0.04 in1.0 mm 0.24 in/hr6.1 mm/hr 0.53 in13.5 mm
01:20 AM 50.0°F10.0°C 49.2°F9.6°C 97% 2.7 mph SSE4.3 kmh SSE 7.8 mph12.6 kmh 29.75 in1007.5 mb 0.02 in0.5 mm 0.12 in/hr3.0 mm/hr 0.48 in12.2 mm
01:10 AM 50.2°F10.1°C 49.3°F9.6°C 97% 2.6 mph NE4.2 kmh NE 6.5 mph10.5 kmh 29.75 in1007.5 mb 0.10 in2.5 mm 0.60 in/hr15.2 mm/hr 0.46 in11.7 mm
01:00 AM 50.2°F10.1°C 49.4°F9.7°C 97% 2.6 mph ESE4.2 kmh ESE 6.5 mph10.5 kmh 29.75 in1007.5 mb 0.17 in4.3 mm 0.20 in/hr5.1 mm/hr 0.38 in9.7 mm
12:50 AM 50.3°F10.2°C 49.4°F9.7°C 97% 2.3 mph N3.7 kmh N 5.2 mph8.4 kmh 29.73 in1006.8 mb 0.09 in2.3 mm 0.54 in/hr13.7 mm/hr 0.22 in5.6 mm
12:40 AM 50.3°F10.2°C 49.5°F9.7°C 97% 3.1 mph E5.0 kmh E 5.2 mph8.4 kmh 29.73 in1006.8 mb 0.05 in1.3 mm 0.30 in/hr7.6 mm/hr 0.15 in3.8 mm
12:30 AM 50.4°F10.2°C 49.6°F9.8°C 97% 5.6 mph WSW9.0 kmh WSW 11.7 mph18.8 kmh 29.73 in1006.8 mb 0.04 in1.0 mm 0.24 in/hr6.1 mm/hr 0.11 in2.8 mm
12:20 AM 50.4°F10.2°C 49.5°F9.7°C 97% 5.5 mph S8.9 kmh S 14.3 mph23.0 kmh 29.73 in1006.8 mb 0.07 in1.8 mm 0.42 in/hr10.7 mm/hr 0.07 in1.8 mm
12:10 AM 50.3°F10.2°C 49.5°F9.7°C 97% 3.2 mph ESE5.1 kmh ESE 3.9 mph6.3 kmh 29.73 in1006.8 mb 0.00 in0.0 mm 0.00 in/hr0.0 mm/hr 0.04 in1.0 mm
12:00 AM 50.2°F10.1°C 49.4°F9.7°C 97% 3.5 mph ESE5.6 kmh ESE 13.0 mph20.9 kmh 29.72 in1006.4 mb 0.04 in1.0 mm 0.00 in/hr0.0 mm/hr 0.04 in1.0 mm